createdAt,value
2019-01-24T00:01:50.502Z,26.48
2019-01-24T00:04:56.286Z,27.98
2019-01-24T00:08:01.942Z,26.17
2019-01-24T00:11:07.592Z,25.25
2019-01-24T00:14:13.238Z,27.45
2019-01-24T00:17:18.894Z,27.73
2019-01-24T00:20:24.895Z,26.60
2019-01-24T00:23:30.507Z,28.32
2019-01-24T00:26:36.182Z,26.45
2019-01-24T00:29:41.810Z,27.10
2019-01-24T00:32:47.581Z,27.45
2019-01-24T00:35:53.422Z,26.85
2019-01-24T00:38:59.286Z,26.07
2019-01-24T00:42:05.005Z,26.37
2019-01-24T00:45:11.229Z,26.77
2019-01-24T00:48:17.057Z,27.05
2019-01-24T00:51:22.853Z,26.35
2019-01-24T00:54:28.546Z,25.37
2019-01-24T00:57:53.143Z,27.37
2019-01-24T01:00:58.817Z,26.37
2019-01-24T01:04:04.562Z,26.50
2019-01-24T01:07:10.226Z,27.23
2019-01-24T01:10:16.498Z,26.77
2019-01-24T01:13:22.149Z,27.98
2019-01-24T01:16:27.846Z,25.88
2019-01-24T01:19:33.555Z,29.27
2019-01-24T01:22:39.178Z,26.97
2019-01-24T01:25:44.830Z,26.65
2019-01-24T01:28:50.485Z,25.02
2019-01-24T01:31:56.369Z,25.72
2019-01-24T01:35:03.254Z,25.90
2019-01-24T01:38:08.978Z,25.80
2019-01-24T01:41:14.772Z,24.52
2019-01-24T01:44:20.394Z,25.35
2019-01-24T01:47:26.103Z,26.33
2019-01-24T01:50:31.722Z,25.30
2019-01-24T01:53:37.346Z,24.75
2019-01-24T01:56:43.001Z,22.48
2019-01-24T01:59:48.681Z,24.05
2019-01-24T02:02:54.325Z,25.02
2019-01-24T02:05:59.986Z,23.90
2019-01-24T02:09:09.581Z,27.30
2019-01-24T02:12:15.312Z,25.48
2019-01-24T02:15:21.241Z,23.32
2019-01-24T02:18:27.101Z,23.75
2019-01-24T02:21:33.946Z,25.00
2019-01-24T02:24:39.641Z,24.32
2019-01-24T02:27:45.490Z,24.65
2019-01-24T02:30:51.147Z,23.57
2019-01-24T02:33:56.794Z,21.80
2019-01-24T02:37:02.426Z,21.25
2019-01-24T02:40:08.474Z,20.00
2019-01-24T02:43:14.131Z,20.57
2019-01-24T02:46:19.785Z,22.70
2019-01-24T02:49:25.472Z,24.37
2019-01-24T02:52:31.122Z,22.37
2019-01-24T02:55:36.778Z,23.45
2019-01-24T02:58:42.398Z,22.20
2019-01-24T03:01:48.062Z,21.65
2019-01-24T03:04:57.053Z,19.70
2019-01-24T03:08:01.129Z,22.17
2019-01-24T03:11:06.779Z,21.80
2019-01-24T03:14:12.406Z,21.97
2019-01-24T03:17:18.087Z,21.95
2019-01-24T03:20:25.438Z,23.07
2019-01-24T03:23:31.132Z,20.57
2019-01-24T03:26:36.785Z,21.27
2019-01-24T03:29:42.314Z,23.02
2019-01-24T03:32:48.329Z,22.15
2019-01-24T03:35:53.943Z,21.73
2019-01-24T03:38:59.578Z,20.97
2019-01-24T03:42:06.490Z,20.53
2019-01-24T03:45:13.550Z,20.57
2019-01-24T03:48:19.221Z,21.87
2019-01-24T03:51:24.846Z,20.68
2019-01-24T03:54:30.521Z,22.67
2019-01-24T03:57:36.310Z,23.60
2019-01-24T04:00:42.036Z,22.97
2019-01-24T04:03:47.694Z,22.22
2019-01-24T04:06:53.306Z,21.02
2019-01-24T04:09:58.960Z,21.10
2019-01-24T04:13:04.954Z,20.90
2019-01-24T04:16:10.606Z,20.12
2019-01-24T04:19:16.367Z,22.53
2019-01-24T04:22:22.010Z,19.65
2019-01-24T04:25:27.755Z,19.37
2019-01-24T04:28:34.639Z,20.00
2019-01-24T04:31:40.369Z,19.87
2019-01-24T04:34:46.950Z,20.03
2019-01-24T04:37:52.700Z,20.95
2019-01-24T04:40:58.386Z,20.40
2019-01-24T04:44:04.285Z,19.67
2019-01-24T04:47:09.894Z,18.27
2019-01-24T04:50:16.877Z,18.27
2019-01-24T04:53:22.426Z,21.27
2019-01-24T04:56:28.149Z,20.17
2019-01-24T04:59:33.802Z,19.63
2019-01-24T05:02:39.493Z,19.37
2019-01-24T05:05:45.141Z,19.90
2019-01-24T05:08:51.155Z,18.17
2019-01-24T05:11:56.758Z,20.57
2019-01-24T05:15:04.499Z,18.15
2019-01-24T05:18:10.107Z,18.30
2019-01-24T05:21:15.772Z,17.98
2019-01-24T05:24:21.382Z,18.07
2019-01-24T05:27:27.423Z,15.28
2019-01-24T05:30:33.241Z,16.20
2019-01-24T05:33:38.991Z,16.83
2019-01-24T05:36:44.537Z,14.18
2019-01-24T05:39:50.162Z,16.07
2019-01-24T05:42:55.941Z,15.08
2019-01-24T05:46:01.598Z,16.25
2019-01-24T05:49:07.246Z,15.38
2019-01-24T05:52:19.226Z,15.85
2019-01-24T05:55:20.190Z,15.80
2019-01-24T05:58:25.846Z,15.65
2019-01-24T06:01:31.909Z,15.13
2019-01-24T06:04:37.536Z,15.40
2019-01-24T06:07:43.309Z,15.53
2019-01-24T06:10:49.889Z,15.38
2019-01-24T06:13:55.542Z,15.88
2019-01-24T06:17:01.306Z,15.65
2019-01-24T06:20:07.430Z,15.80
2019-01-24T06:23:13.120Z,15.32
2019-01-24T06:26:18.765Z,16.10
2019-01-24T06:29:24.627Z,14.83
2019-01-24T06:32:30.501Z,15.45
2019-01-24T06:35:36.138Z,15.23
2019-01-24T06:38:41.690Z,17.02
2019-01-24T06:41:48.439Z,18.35
2019-01-24T06:44:54.092Z,15.63
2019-01-24T06:47:59.778Z,17.90
2019-01-24T06:51:05.625Z,44.73
2019-01-24T06:54:11.285Z,23.22
2019-01-24T06:57:16.929Z,29.25
2019-01-24T07:00:22.592Z,23.73
2019-01-24T07:03:28.239Z,16.00
2019-01-24T07:06:33.895Z,22.32
2019-01-24T07:09:40.553Z,22.05
2019-01-24T07:12:46.193Z,16.85
2019-01-24T07:16:11.817Z,21.50
2019-01-24T07:19:17.698Z,18.90
2019-01-24T07:22:23.321Z,16.67
2019-01-24T07:25:29.495Z,16.85
2019-01-24T07:28:35.171Z,15.93
2019-01-24T07:31:40.904Z,17.27
2019-01-24T07:34:46.695Z,16.62
2019-01-24T07:37:53.428Z,16.17
2019-01-24T07:41:00.226Z,14.93
2019-01-24T07:44:06.198Z,17.37
2019-01-24T07:47:11.962Z,24.30
2019-01-24T07:50:17.606Z,21.00
2019-01-24T07:53:23.468Z,21.33
2019-01-24T07:56:29.090Z,17.42
2019-01-24T07:59:34.807Z,17.77
2019-01-24T08:02:40.422Z,17.42
2019-01-24T08:05:46.162Z,19.17
2019-01-24T08:08:51.832Z,18.77
2019-01-24T08:11:57.766Z,15.48
2019-01-24T08:15:03.444Z,14.60
2019-01-24T08:18:09.098Z,15.32
2019-01-24T08:21:14.749Z,15.68
2019-01-24T08:24:20.459Z,17.40
2019-01-24T08:27:26.154Z,13.83
2019-01-24T08:30:33.377Z,15.35
2019-01-24T08:33:38.994Z,15.05
2019-01-24T08:36:44.713Z,14.90
2019-01-24T08:39:50.507Z,14.55
2019-01-24T08:42:56.162Z,16.32
2019-01-24T08:46:01.814Z,14.05
2019-01-24T08:49:07.502Z,14.00
2019-01-24T08:52:13.090Z,14.18
2019-01-24T08:55:25.565Z,16.80
2019-01-24T08:58:31.157Z,13.53
2019-01-24T09:01:36.918Z,16.12
2019-01-24T09:04:42.590Z,15.83
2019-01-24T09:07:48.451Z,15.72
2019-01-24T09:10:54.078Z,15.95
2019-01-24T09:13:59.754Z,16.52
2019-01-24T09:17:05.401Z,14.30
2019-01-24T09:20:12.966Z,17.12
2019-01-24T09:23:18.658Z,15.83
2019-01-24T09:26:24.322Z,15.78
2019-01-24T09:29:30.953Z,16.65
2019-01-24T09:32:36.610Z,18.30
2019-01-24T09:35:42.285Z,19.05
2019-01-24T09:38:47.914Z,18.57
2019-01-24T09:41:53.701Z,17.02
2019-01-24T09:44:59.358Z,17.25
2019-01-24T09:48:06.198Z,16.87
2019-01-24T09:51:11.885Z,17.12
2019-01-24T09:54:17.551Z,17.92
2019-01-24T09:57:23.194Z,16.73
2019-01-24T10:00:30.760Z,18.10
2019-01-24T10:03:36.450Z,17.60
2019-01-24T10:06:43.096Z,16.82
2019-01-24T10:10:09.458Z,17.67
2019-01-24T10:13:15.078Z,16.17
2019-01-24T10:16:20.658Z,19.05
2019-01-24T10:19:26.310Z,17.55
2019-01-24T10:22:31.938Z,17.73
2019-01-24T10:25:39.121Z,17.62
2019-01-24T10:28:44.810Z,19.82
2019-01-24T10:31:50.418Z,17.05
2019-01-24T10:34:56.074Z,18.87
2019-01-24T10:38:01.751Z,17.20
2019-01-24T10:41:07.410Z,18.90
2019-01-24T10:44:13.062Z,18.75
2019-01-24T10:47:18.715Z,16.37
2019-01-24T10:50:25.196Z,17.98
2019-01-24T10:53:30.839Z,17.62
2019-01-24T10:56:36.463Z,17.92
2019-01-24T10:59:42.109Z,20.02
2019-01-24T11:02:47.794Z,17.55
2019-01-24T11:05:53.454Z,19.02
2019-01-24T11:08:59.075Z,18.95
2019-01-24T11:12:04.926Z,17.32
2019-01-24T11:15:13.431Z,20.20
2019-01-24T11:18:19.130Z,20.25
2019-01-24T11:21:24.821Z,17.27
2019-01-24T11:24:30.433Z,17.82
2019-01-24T11:27:36.309Z,17.85
2019-01-24T11:30:42.019Z,17.65
2019-01-24T11:33:48.029Z,17.32
2019-01-24T11:36:57.132Z,16.82
2019-01-24T11:40:02.326Z,16.97
2019-01-24T11:43:08.138Z,16.50
2019-01-24T11:46:13.910Z,17.37
2019-01-24T11:49:20.453Z,19.65
2019-01-24T11:52:26.474Z,18.02
2019-01-24T11:55:32.188Z,17.75
2019-01-24T11:58:38.190Z,18.07
2019-01-24T12:01:43.897Z,17.90
2019-01-24T12:04:49.593Z,16.50
2019-01-24T12:07:55.208Z,17.75
2019-01-24T12:11:00.947Z,16.95
2019-01-24T12:14:06.612Z,17.10
2019-01-24T12:17:12.302Z,16.62
2019-01-24T12:20:19.726Z,18.55
2019-01-24T12:23:26.229Z,17.10
2019-01-24T12:26:31.886Z,17.90
2019-01-24T12:29:39.225Z,16.30
2019-01-24T12:32:44.906Z,17.75
2019-01-24T12:35:50.566Z,18.23
2019-01-24T12:38:56.237Z,17.62
2019-01-24T12:42:01.898Z,16.90
2019-01-24T12:45:10.486Z,17.67
2019-01-24T12:48:16.274Z,16.65
2019-01-24T12:51:22.897Z,17.10
2019-01-24T12:54:28.598Z,17.45
2019-01-24T12:57:34.258Z,16.48
2019-01-24T13:00:40.730Z,15.53
2019-01-24T13:03:47.585Z,15.48
2019-01-24T13:06:53.364Z,16.23
2019-01-24T13:09:59.006Z,16.30
2019-01-24T13:13:05.187Z,15.50
2019-01-24T13:16:10.919Z,15.50
2019-01-24T13:19:16.595Z,16.57
2019-01-24T13:22:22.240Z,17.62
2019-01-24T13:25:32.603Z,17.02
2019-01-24T13:28:38.222Z,18.82
2019-01-24T13:31:43.989Z,17.35
2019-01-24T13:34:49.662Z,19.80
2019-01-24T13:37:55.320Z,19.32
2019-01-24T13:41:00.942Z,19.50
2019-01-24T13:44:06.627Z,21.80
2019-01-24T13:47:12.277Z,20.55
2019-01-24T13:50:18.830Z,19.07
2019-01-24T13:53:24.470Z,18.70
2019-01-24T13:56:30.158Z,21.15
2019-01-24T13:59:35.777Z,19.95
2019-01-24T14:02:41.734Z,16.87
2019-01-24T14:05:47.416Z,22.82
2019-01-24T14:08:53.175Z,20.08
2019-01-24T14:11:58.826Z,21.93
2019-01-24T14:15:04.962Z,22.52
2019-01-24T14:18:10.830Z,21.77
2019-01-24T14:21:17.426Z,21.60
2019-01-24T14:24:23.079Z,20.17
2019-01-24T14:27:28.806Z,21.52
2019-01-24T14:30:34.587Z,19.35
2019-01-24T14:33:40.347Z,20.17
2019-01-24T14:36:45.912Z,20.62
2019-01-24T14:39:52.687Z,21.12
2019-01-24T14:42:58.325Z,18.85
2019-01-24T14:46:03.978Z,20.92
2019-01-24T14:49:09.606Z,17.73
2019-01-24T14:52:15.254Z,16.77
2019-01-24T14:55:21.010Z,19.65
2019-01-24T14:58:26.694Z,17.50
2019-01-24T15:01:32.339Z,17.77
2019-01-24T15:04:37.962Z,18.60
2019-01-24T15:07:47.364Z,17.62
2019-01-24T15:10:50.921Z,18.57
2019-01-24T15:13:56.695Z,17.50
2019-01-24T15:17:02.345Z,16.73
2019-01-24T15:20:09.229Z,19.20
2019-01-24T15:23:14.859Z,17.73
2019-01-24T15:26:20.563Z,19.40
2019-01-24T15:29:26.300Z,19.40
2019-01-24T15:32:32.147Z,17.65
2019-01-24T15:35:37.806Z,20.05
2019-01-24T15:38:43.462Z,22.07
2019-01-24T15:41:49.105Z,17.67
2019-01-24T15:44:54.759Z,17.92
2019-01-24T15:48:00.930Z,20.80
2019-01-24T15:51:07.598Z,19.65
2019-01-24T15:54:13.265Z,19.12
2019-01-24T15:57:19.043Z,17.07
2019-01-24T16:00:26.897Z,18.30
2019-01-24T16:03:32.604Z,20.32
2019-01-24T16:06:38.189Z,18.40
2019-01-24T16:09:43.887Z,18.85
2019-01-24T16:12:50.197Z,21.82
2019-01-24T16:15:55.900Z,18.60
2019-01-24T16:19:01.542Z,17.27
2019-01-24T16:22:07.338Z,18.07
2019-01-24T16:25:14.042Z,18.73
2019-01-24T16:28:24.649Z,20.62
2019-01-24T16:31:27.299Z,18.73
2019-01-24T16:34:32.999Z,19.52
2019-01-24T16:37:38.635Z,16.90
2019-01-24T16:40:45.519Z,19.90
2019-01-24T16:43:51.169Z,19.32
2019-01-24T16:46:57.890Z,18.92
2019-01-24T16:50:04.786Z,18.35
2019-01-24T16:53:10.628Z,17.52
2019-01-24T16:56:18.147Z,21.80
2019-01-24T16:59:23.892Z,17.52
2019-01-24T17:02:29.494Z,18.90
2019-01-24T17:05:35.122Z,20.40
2019-01-24T17:08:43.278Z,18.95
2019-01-24T17:11:49.684Z,18.67
2019-01-24T17:14:56.458Z,40.08
2019-01-24T17:18:03.362Z,50.17
2019-01-24T17:22:02.200Z,47.73
2019-01-24T17:30:30.149Z,33.70
2019-01-24T17:33:35.827Z,32.17
2019-01-24T17:36:42.496Z,31.68
2019-01-24T17:39:48.230Z,32.03
2019-01-24T17:42:53.986Z,29.75
2019-01-24T17:45:59.642Z,41.75
2019-01-24T17:49:06.521Z,33.35
2019-01-24T17:52:12.178Z,30.43
2019-01-24T17:55:20.459Z,27.45
2019-01-24T17:58:26.123Z,29.25
2019-01-24T18:01:31.801Z,25.57
2019-01-24T18:04:37.454Z,26.12
2019-01-24T18:07:43.075Z,29.37
2019-01-24T18:10:48.762Z,27.32
2019-01-24T18:13:55.413Z,25.55
2019-01-24T18:17:01.085Z,23.05
2019-01-24T18:20:09.261Z,24.12
2019-01-24T18:23:15.238Z,40.92
2019-01-24T18:26:20.912Z,35.98
2019-01-24T18:29:26.570Z,31.15
2019-01-24T18:32:32.206Z,28.83
2019-01-24T18:35:38.054Z,24.77
2019-01-24T18:38:43.829Z,27.40
2019-01-24T18:41:49.457Z,25.55
2019-01-24T18:44:55.144Z,25.23
2019-01-24T18:48:01.142Z,25.65
2019-01-24T18:51:06.925Z,28.00
2019-01-24T18:54:12.711Z,30.62
2019-01-24T18:57:18.357Z,30.75
2019-01-24T19:00:33.742Z,34.05
2019-01-24T19:03:40.409Z,40.23
2019-01-24T19:06:45.906Z,29.23
2019-01-24T19:09:52.754Z,38.67
2019-01-24T19:12:58.621Z,34.15
2019-01-24T19:16:04.550Z,38.90
2019-01-24T19:19:10.325Z,37.40
2019-01-24T19:22:16.014Z,32.85
2019-01-24T19:25:22.348Z,31.70
2019-01-24T19:28:28.133Z,32.45
2019-01-24T19:31:35.538Z,27.32
2019-01-24T19:34:41.566Z,28.32
2019-01-24T19:37:47.363Z,27.80
2019-01-24T19:40:53.422Z,27.10
2019-01-24T19:43:59.023Z,26.97
2019-01-24T19:47:06.526Z,24.07
2019-01-24T19:50:14.191Z,25.90
2019-01-24T19:53:19.914Z,24.75
2019-01-24T19:56:25.838Z,23.05
2019-01-24T19:59:31.526Z,23.18
2019-01-24T20:02:36.978Z,22.30
2019-01-24T20:05:42.702Z,26.65
2019-01-24T20:08:48.313Z,23.52
2019-01-24T20:11:54.190Z,26.62
2019-01-24T20:14:59.921Z,23.07
2019-01-24T20:18:07.434Z,27.27
2019-01-24T20:21:13.170Z,23.10
2019-01-24T20:24:18.839Z,24.40
2019-01-24T20:27:24.514Z,24.07
2019-01-24T20:30:31.869Z,20.25
2019-01-24T20:33:40.396Z,23.22
2019-01-24T20:36:46.090Z,22.98
2019-01-24T20:39:51.834Z,22.20
2019-01-24T20:42:59.124Z,22.32
2019-01-24T20:46:06.190Z,24.98
2019-01-24T20:49:11.986Z,25.00
2019-01-24T20:52:17.514Z,24.98
2019-01-24T20:55:24.942Z,24.57
2019-01-24T20:58:30.634Z,23.92
2019-01-24T21:01:36.422Z,24.23
2019-01-24T21:04:42.046Z,22.13
2019-01-24T21:07:48.025Z,24.95
2019-01-24T21:10:56.694Z,30.17
2019-01-24T21:14:02.482Z,28.57
2019-01-24T21:17:08.528Z,43.20
2019-01-24T21:20:16.651Z,38.75
2019-01-24T21:23:23.400Z,26.65
2019-01-24T21:26:29.423Z,26.57
2019-01-24T21:29:35.047Z,26.73
2019-01-24T21:32:40.797Z,28.42
2019-01-24T21:35:46.483Z,28.65
2019-01-24T21:38:53.058Z,28.83
2019-01-24T21:41:58.682Z,25.25
2019-01-24T21:45:04.889Z,31.65
2019-01-24T21:48:10.646Z,28.77
2019-01-24T21:51:16.490Z,24.82
2019-01-24T21:54:22.221Z,26.35
2019-01-24T21:57:28.278Z,25.95
2019-01-24T22:00:34.162Z,25.08
2019-01-24T22:03:39.818Z,24.35
2019-01-24T22:06:45.442Z,26.90
2019-01-24T22:09:51.121Z,26.82
2019-01-24T22:12:56.778Z,27.60
2019-01-24T22:16:03.866Z,28.73
2019-01-24T22:19:09.486Z,27.25
2019-01-24T22:22:15.174Z,26.77
2019-01-24T22:25:23.765Z,28.50
2019-01-24T22:28:29.547Z,28.17
2019-01-24T22:31:35.166Z,28.17
2019-01-24T22:34:40.935Z,28.67
2019-01-24T22:37:46.601Z,30.82
2019-01-24T22:40:52.361Z,29.05
2019-01-24T22:43:58.082Z,28.67
2019-01-24T22:47:03.776Z,25.90
2019-01-24T22:50:11.537Z,26.87
2019-01-24T22:53:17.221Z,27.87
2019-01-24T22:56:22.961Z,27.42
2019-01-24T22:59:30.166Z,27.45
2019-01-24T23:02:35.854Z,26.65
2019-01-24T23:05:41.470Z,29.92
2019-01-24T23:08:50.414Z,27.93
2019-01-24T23:11:56.025Z,26.97
2019-01-24T23:15:01.751Z,30.48
2019-01-24T23:18:07.562Z,30.50
2019-01-24T23:21:13.437Z,26.97
2019-01-24T23:24:19.095Z,27.30
2019-01-24T23:27:24.902Z,28.05
2019-01-24T23:30:30.557Z,27.77
2019-01-24T23:33:36.205Z,27.77
2019-01-24T23:36:41.887Z,27.52
2019-01-24T23:39:51.690Z,28.17
2019-01-24T23:42:54.802Z,29.70
2019-01-24T23:46:00.506Z,27.73
2019-01-24T23:49:06.142Z,29.67
2019-01-24T23:52:11.862Z,26.73
2019-01-24T23:55:17.548Z,28.00
2019-01-24T23:58:23.246Z,26.02
